Time;durP1;ratioP1;P1;durP2;ratioP2;P2;SDS_P1;SDS_P2;PMS_P1;PMS_P2;Temp;Humidity;BMP_temperature;BMP_pressure;BME280_temperature;BME280_humidity;BME280_pressure;Samples;Min_cycle;Max_cycle;Signal;HPM_P1;HPM_P2
2020/12/05 00:00:37;;;;;;;;;;;;;;;;;;5100154;28;19971;-81
2020/12/05 00:03:03;;;;;;;;;;;;;;;;;;5091078;28;19935;-81
2020/12/05 00:05:30;;;;;;;;;;;;;;;;;;5109599;28;19928;-81
2020/12/05 00:07:57;;;;;;;;;;;;;;;;;;5108647;28;20002;-83
2020/12/05 00:10:23;;;;;;;;;;;;;;;;;;5095759;28;19935;-82
2020/12/05 00:12:50;;;;;;;;;;;;;;;;;;5105752;28;19956;-82
2020/12/05 00:15:16;;;;;;;;;;;;;;;;;;5106268;28;19952;-84
2020/12/05 00:17:45;;;;;;;;;;;;;;;;;;5098203;28;19935;-82
2020/12/05 00:20:11;;;;;;;;;;;;;;;;;;5106393;28;19974;-81
2020/12/05 00:22:38;;;;;;;;;;;;;;;;;;5089992;28;19924;-82
2020/12/05 00:25:04;;;;;;;;;;;;;;;;;;5096228;28;19924;-82
2020/12/05 00:27:31;;;;;;;;;;;;;;;;;;5108482;28;19955;-82
2020/12/05 00:29:58;;;;;;;;;;;;;;;;;;5108568;28;19924;-81
2020/12/05 00:32:28;;;;;;;;;;;;;;;;;;5089135;28;20465;-82
2020/12/05 00:34:55;;;;;;;;;;;;;;;;;;5106757;28;19931;-81
2020/12/05 00:37:21;;;;;;;;;;;;;;;;;;5106204;28;19924;-82
2020/12/05 00:39:56;;;;;;;;;;;;;;;;;;5108286;28;19931;-81
2020/12/05 00:42:22;;;;;;;;;;;;;;;;;;5097265;28;19908;-82
2020/12/05 00:44:49;;;;;;;;;;;;;;;;;;5096139;28;20014;-82
2020/12/05 00:47:15;;;;;;;;;;;;;;;;;;5084318;28;19931;-82
2020/12/05 00:49:42;;;;;;;;;;;;;;;;;;5102193;28;19957;-82
2020/12/05 00:52:17;;;;;;;;;;;;;;;;;;5076238;28;20009;-82
2020/12/05 00:54:44;;;;;;;;;;;;;;;;;;5076336;28;20014;-82
2020/12/05 00:57:10;;;;;;;;;;;;;;;;;;5095913;28;19959;-82
2020/12/05 00:59:37;;;;;;;;;;;;;;;;;;5086015;28;20399;-82
2020/12/05 01:02:13;;;;;;;;;;;;;;;;;;5079915;28;20018;-82
2020/12/05 01:04:39;;;;;;;;;;;;;;;;;;5086629;28;19928;-82
2020/12/05 01:07:06;;;;;;;;;;;;;;;;;;5087121;28;20026;-82
2020/12/05 01:09:47;;;;;;;;;;;;;;;;;;5080400;28;19924;-82
2020/12/05 01:12:13;;;;;;;;;;;;;;;;;;5098804;28;19924;-83
2020/12/05 01:14:40;;;;;;;;;;;;;;;;;;5097198;28;20007;-82
2020/12/05 01:17:13;;;;;;;;;;;;;;;;;;5097798;28;19924;-82
2020/12/05 01:19:40;;;;;;;;;;;;;;;;;;5116084;28;19963;-82
2020/12/05 01:22:07;;;;;;;;;;;;;;;;;;5102669;28;20440;-82
2020/12/05 01:24:34;;;;;;;;;;;;;;;;;;5098445;28;19982;-82
2020/12/05 01:27:00;;;;;;;;;;;;;;;;;;5082191;28;19992;-80
2020/12/05 01:29:32;;;;;;;;;;;;;;;;;;5081843;28;20334;-80
2020/12/05 01:31:59;;;;;;;;;;;;;;;;;;5094367;28;19982;-80
2020/12/05 01:34:27;;;;;;;;;;;;;;;;;;5093757;28;19999;-79
2020/12/05 01:36:54;;;;;;;;;;;;;;;;;;5086025;28;20397;-80
2020/12/05 01:39:21;;;;;;;;;;;;;;;;;;5095452;28;20086;-80
2020/12/05 01:41:48;;;;;;;;;;;;;;;;;;5084832;28;19963;-79
2020/12/05 01:44:14;;;;;;;;;;;;;;;;;;5091324;28;19931;-79
2020/12/05 01:46:41;;;;;;;;;;;;;;;;;;5090522;28;19966;-79
2020/12/05 01:49:07;;;;;;;;;;;;;;;;;;5093097;28;20400;-80
2020/12/05 01:51:34;;;;;;;;;;;;;;;;;;5095034;28;20431;-80
2020/12/05 01:54:00;;;;;;;;;;;;;;;;;;5099639;28;19928;-80
2020/12/05 01:56:31;;;;;;;;;;;;;;;;;;5095524;28;20023;-80
2020/12/05 01:58:57;;;;;;;;;;;;;;;;;;5086725;28;20262;-80
2020/12/05 02:01:25;;;;;;;;;;;;;;;;;;5076974;28;20011;-80
2020/12/05 02:03:52;;;;;;;;;;;;;;;;;;5085292;28;19967;-79
2020/12/05 02:06:19;;;;;;;;;;;;;;;;;;5095117;28;19924;-79
2020/12/05 02:08:48;;;;;;;;;;;;;;;;;;5077601;28;19971;-79
2020/12/05 02:11:15;;;;;;;;;;;;;;;;;;5079589;28;20300;-79
2020/12/05 02:13:41;;;;;;;;;;;;;;;;;;5093574;28;20019;-80
2020/12/05 02:16:11;;;;;;;;;;;;;;;;;;5078512;28;20031;-80
2020/12/05 02:18:37;;;;;;;;;;;;;;;;;;5079269;28;20343;-80
2020/12/05 02:21:04;;;;;;;;;;;;;;;;;;5094841;28;19925;-79
2020/12/05 02:23:46;;;;;;;;;;;;;;;;;;5094940;28;20001;-80
2020/12/05 02:26:13;;;;;;;;;;;;;;;;;;5094283;28;20282;-80
2020/12/05 02:28:47;;;;;;;;;;;;;;;;;;5094409;28;20027;-80
2020/12/05 02:31:14;;;;;;;;;;;;;;;;;;5094537;28;20275;-80
2020/12/05 02:33:40;;;;;;;;;;;;;;;;;;5078400;28;19934;-80
2020/12/05 02:36:07;;;;;;;;;;;;;;;;;;5084464;28;19956;-79
2020/12/05 02:38:33;;;;;;;;;;;;;;;;;;5094278;28;19928;-80
2020/12/05 02:41:02;;;;;;;;;;;;;;;;;;5084744;28;20394;-80
2020/12/05 02:43:29;;;;;;;;;;;;;;;;;;5092482;28;20643;-79
2020/12/05 02:46:00;;;;;;;;;;;;;;;;;;5076327;28;20559;-80
2020/12/05 02:48:26;;;;;;;;;;;;;;;;;;5080012;28;20023;-80
2020/12/05 02:50:53;;;;;;;;;;;;;;;;;;5102722;28;20442;-80
2020/12/05 02:53:20;;;;;;;;;;;;;;;;;;5084745;28;20014;-79
2020/12/05 02:55:48;;;;;;;;;;;;;;;;;;5093557;28;20007;-80
2020/12/05 02:58:15;;;;;;;;;;;;;;;;;;5093935;28;20011;-79
2020/12/05 03:00:48;;;;;;;;;;;;;;;;;;5078963;28;19974;-79
2020/12/05 03:03:14;;;;;;;;;;;;;;;;;;5084276;28;19967;-79
2020/12/05 03:05:41;;;;;;;;;;;;;;;;;;5082059;28;20011;-80
2020/12/05 03:08:07;;;;;;;;;;;;;;;;;;5093760;28;20006;-79
2020/12/05 03:10:34;;;;;;;;;;;;;;;;;;5083643;28;20420;-80
2020/12/05 03:13:02;;;;;;;;;;;;;;;;;;5092187;28;20019;-80
2020/12/05 03:15:29;;;;;;;;;;;;;;;;;;5080267;28;20042;-80
2020/12/05 03:17:56;;;;;;;;;;;;;;;;;;5097047;28;20003;-80
2020/12/05 03:20:22;;;;;;;;;;;;;;;;;;5114211;28;19962;-80
2020/12/05 03:22:51;;;;;;;;;;;;;;;;;;5084641;28;19928;-79
2020/12/05 03:25:17;;;;;;;;;;;;;;;;;;5084516;28;19978;-80
2020/12/05 03:27:44;;;;;;;;;;;;;;;;;;5093469;28;19924;-80
2020/12/05 03:30:10;;;;;;;;;;;;;;;;;;5075521;28;20020;-80
2020/12/05 03:32:37;;;;;;;;;;;;;;;;;;5075141;28;20431;-80
2020/12/05 03:35:04;;;;;;;;;;;;;;;;;;5093005;28;19963;-80
2020/12/05 03:37:30;;;;;;;;;;;;;;;;;;5082980;28;19932;-79
2020/12/05 03:39:57;;;;;;;;;;;;;;;;;;5092783;28;19928;-79
2020/12/05 03:42:24;;;;;;;;;;;;;;;;;;5097704;28;20499;-80
2020/12/05 03:44:51;;;;;;;;;;;;;;;;;;5091543;28;20060;-80
2020/12/05 03:47:19;;;;;;;;;;;;;;;;;;5074750;28;20071;-80
2020/12/05 03:49:46;;;;;;;;;;;;;;;;;;5092785;28;20008;-80
2020/12/05 03:52:16;;;;;;;;;;;;;;;;;;5092495;28;20026;-80
2020/12/05 03:54:43;;;;;;;;;;;;;;;;;;5082850;28;20011;-80
2020/12/05 03:57:10;;;;;;;;;;;;;;;;;;5092847;28;20019;-80
2020/12/05 03:59:37;;;;;;;;;;;;;;;;;;5092952;28;20077;-80
2020/12/05 04:02:05;;;;;;;;;;;;;;;;;;5092250;28;19928;-79
2020/12/05 04:04:31;;;;;;;;;;;;;;;;;;5079426;28;20003;-80
2020/12/05 04:06:59;;;;;;;;;;;;;;;;;;5083129;28;19928;-80
2020/12/05 04:09:25;;;;;;;;;;;;;;;;;;5087526;28;19924;-80
2020/12/05 04:11:52;;;;;;;;;;;;;;;;;;5086397;28;19950;-79
2020/12/05 04:14:19;;;;;;;;;;;;;;;;;;5092444;28;20432;-80
2020/12/05 04:16:46;;;;;;;;;;;;;;;;;;5082835;28;20023;-80
2020/12/05 04:19:13;;;;;;;;;;;;;;;;;;5092355;28;20766;-80
2020/12/05 04:21:40;;;;;;;;;;;;;;;;;;5075318;28;20007;-80
2020/12/05 04:24:06;;;;;;;;;;;;;;;;;;5077090;28;19946;-79
2020/12/05 04:26:40;;;;;;;;;;;;;;;;;;5082799;28;20015;-79
2020/12/05 04:29:06;;;;;;;;;;;;;;;;;;5091004;28;19938;-80
2020/12/05 04:31:35;;;;;;;;;;;;;;;;;;5078789;28;20019;-79
2020/12/05 04:34:01;;;;;;;;;;;;;;;;;;5082624;28;20777;-80
2020/12/05 04:36:28;;;;;;;;;;;;;;;;;;5078662;28;20008;-80
2020/12/05 04:38:55;;;;;;;;;;;;;;;;;;5082880;28;20366;-79
2020/12/05 04:41:22;;;;;;;;;;;;;;;;;;5091589;28;20356;-80
2020/12/05 04:43:51;;;;;;;;;;;;;;;;;;5091221;28;19959;-80
2020/12/05 04:46:18;;;;;;;;;;;;;;;;;;5091632;28;20014;-80
2020/12/05 04:48:55;;;;;;;;;;;;;;;;;;5075758;28;20022;-80
2020/12/05 04:51:21;;;;;;;;;;;;;;;;;;5073304;28;19924;-80
2020/12/05 04:53:48;;;;;;;;;;;;;;;;;;5092073;28;20022;-80
2020/12/05 04:56:22;;;;;;;;;;;;;;;;;;5092219;28;20387;-80
2020/12/05 04:58:49;;;;;;;;;;;;;;;;;;5091540;28;20568;-79
2020/12/05 05:01:23;;;;;;;;;;;;;;;;;;5091781;28;19993;-79
2020/12/05 05:03:49;;;;;;;;;;;;;;;;;;5073171;28;20612;-80
2020/12/05 05:06:16;;;;;;;;;;;;;;;;;;5082586;28;19924;-81
2020/12/05 05:08:42;;;;;;;;;;;;;;;;;;5076173;28;19930;-80
2020/12/05 05:11:10;;;;;;;;;;;;;;;;;;5092370;28;20014;-80
2020/12/05 05:13:36;;;;;;;;;;;;;;;;;;5100686;28;19924;-80
2020/12/05 05:16:03;;;;;;;;;;;;;;;;;;5091837;28;20361;-81
2020/12/05 05:18:35;;;;;;;;;;;;;;;;;;5074158;28;19928;-81
2020/12/05 05:21:02;;;;;;;;;;;;;;;;;;5074853;28;20010;-81
2020/12/05 05:23:35;;;;;;;;;;;;;;;;;;5077960;28;19982;-81
2020/12/05 05:26:02;;;;;;;;;;;;;;;;;;5083195;28;19981;-81
2020/12/05 05:28:30;;;;;;;;;;;;;;;;;;5077639;28;19967;-81
2020/12/05 05:30:59;;;;;;;;;;;;;;;;;;5091505;28;19959;-81
2020/12/05 05:33:26;;;;;;;;;;;;;;;;;;5092153;28;20017;-81
2020/12/05 05:35:53;;;;;;;;;;;;;;;;;;5081916;28;19931;-81
2020/12/05 05:38:19;;;;;;;;;;;;;;;;;;5091236;28;20023;-81
2020/12/05 05:40:46;;;;;;;;;;;;;;;;;;5081792;28;19932;-81
2020/12/05 05:43:13;;;;;;;;;;;;;;;;;;5090375;28;20015;-81
2020/12/05 05:45:41;;;;;;;;;;;;;;;;;;5078095;28;20015;-81
2020/12/05 05:48:08;;;;;;;;;;;;;;;;;;5076104;28;19995;-81
2020/12/05 05:50:35;;;;;;;;;;;;;;;;;;5076316;28;20015;-81
2020/12/05 05:53:01;;;;;;;;;;;;;;;;;;5082774;28;19982;-81
2020/12/05 05:55:28;;;;;;;;;;;;;;;;;;5085654;28;19924;-81
2020/12/05 05:57:54;;;;;;;;;;;;;;;;;;5085606;28;19924;-81
2020/12/05 06:00:22;;;;;;;;;;;;;;;;;;5098884;28;20011;-81
2020/12/05 06:02:53;;;;;;;;;;;;;;;;;;5084007;28;20427;-81
2020/12/05 06:08:12;;;;;;;;;;;;;;;;;;5095047;28;19977;-81
2020/12/05 06:10:46;;;;;;;;;;;;;;;;;;5094880;28;19967;-81
2020/12/05 06:13:13;;;;;;;;;;;;;;;;;;5094235;28;20360;-81
2020/12/05 06:15:39;;;;;;;;;;;;;;;;;;5094667;28;19972;-81
2020/12/05 06:18:06;;;;;;;;;;;;;;;;;;5084827;28;19974;-82
2020/12/05 06:20:32;;;;;;;;;;;;;;;;;;5079845;28;20006;-81
2020/12/05 06:23:01;;;;;;;;;;;;;;;;;;5084543;28;20007;-81
2020/12/05 06:25:27;;;;;;;;;;;;;;;;;;5094837;28;19928;-81
2020/12/05 06:27:54;;;;;;;;;;;;;;;;;;5094008;28;19928;-81
2020/12/05 06:30:21;;;;;;;;;;;;;;;;;;5080169;28;19959;-81
2020/12/05 06:32:48;;;;;;;;;;;;;;;;;;5094207;28;19928;-81
2020/12/05 06:35:21;;;;;;;;;;;;;;;;;;5094279;28;19924;-81
2020/12/05 06:37:54;;;;;;;;;;;;;;;;;;5099948;28;19930;-81
2020/12/05 06:40:20;;;;;;;;;;;;;;;;;;5079555;28;20325;-81
2020/12/05 06:42:47;;;;;;;;;;;;;;;;;;5093787;28;19967;-81
2020/12/05 06:45:14;;;;;;;;;;;;;;;;;;5084576;28;19928;-81
2020/12/05 06:47:40;;;;;;;;;;;;;;;;;;5077323;28;20006;-81
2020/12/05 06:50:07;;;;;;;;;;;;;;;;;;5093504;28;20011;-84
2020/12/05 06:52:33;;;;;;;;;;;;;;;;;;5075859;28;20440;-83
2020/12/05 06:55:06;;;;;;;;;;;;;;;;;;5083730;28;20674;-83
2020/12/05 06:57:42;;;;;;;;;;;;;;;;;;5093805;28;19935;-82
2020/12/05 07:00:09;;;;;;;;;;;;;;;;;;5093570;28;19979;-83
2020/12/05 07:02:36;;;;;;;;;;;;;;;;;;5078192;28;20632;-83
2020/12/05 07:05:02;;;;;;;;;;;;;;;;;;5084218;28;19988;-82
2020/12/05 07:07:29;;;;;;;;;;;;;;;;;;5078967;28;19993;-82
2020/12/05 07:09:55;;;;;;;;;;;;;;;;;;5075473;28;20011;-81
2020/12/05 07:12:44;;;;;;;;;;;;;;;;;;5092422;28;19981;-81
2020/12/05 07:15:16;;;;;;;;;;;;;;;;;;5086863;28;19943;-81
2020/12/05 07:17:43;;;;;;;;;;;;;;;;;;5077274;28;20345;-81
2020/12/05 07:20:10;;;;;;;;;;;;;;;;;;5093400;28;19940;-81
2020/12/05 07:22:37;;;;;;;;;;;;;;;;;;5080252;28;20007;-81
2020/12/05 07:25:09;;;;;;;;;;;;;;;;;;5075062;28;20023;-83
2020/12/05 07:27:36;;;;;;;;;;;;;;;;;;5080528;28;20011;-82
2020/12/05 07:30:02;;;;;;;;;;;;;;;;;;5092705;28;19963;-81
2020/12/05 07:32:29;;;;;;;;;;;;;;;;;;5073879;28;19934;-79
2020/12/05 07:34:55;;;;;;;;;;;;;;;;;;5082938;28;19959;-80
2020/12/05 07:37:22;;;;;;;;;;;;;;;;;;5092921;28;20265;-80
2020/12/05 07:39:51;;;;;;;;;;;;;;;;;;5083665;28;19924;-80
2020/12/05 07:42:17;;;;;;;;;;;;;;;;;;5092956;28;19924;-80
2020/12/05 07:44:44;;;;;;;;;;;;;;;;;;5077212;28;20393;-81
2020/12/05 07:47:11;;;;;;;;;;;;;;;;;;5094771;28;19928;-82
2020/12/05 07:49:37;;;;;;;;;;;;;;;;;;5083698;28;20002;-82
2020/12/05 07:52:03;;;;;;;;;;;;;;;;;;5090185;28;19950;-82
2020/12/05 07:54:30;;;;;;;;;;;;;;;;;;5092723;28;19974;-82
2020/12/05 07:57:04;;;;;;;;;;;;;;;;;;5092637;28;19931;-82
2020/12/05 07:59:30;;;;;;;;;;;;;;;;;;5080370;28;19928;-82
2020/12/05 08:01:58;;;;;;;;;;;;;;;;;;5081565;28;20018;-81
2020/12/05 08:04:24;;;;;;;;;;;;;;;;;;5074422;28;19976;-82
2020/12/05 08:06:51;;;;;;;;;;;;;;;;;;5092137;28;19924;-82
2020/12/05 08:09:17;;;;;;;;;;;;;;;;;;5074660;28;20010;-83
2020/12/05 08:11:44;;;;;;;;;;;;;;;;;;5092505;28;20084;-83
2020/12/05 08:14:11;;;;;;;;;;;;;;;;;;5074715;28;19947;-82
2020/12/05 08:16:38;;;;;;;;;;;;;;;;;;5074417;28;19999;-82
2020/12/05 08:19:04;;;;;;;;;;;;;;;;;;5093241;28;19924;-83
2020/12/05 08:21:33;;;;;;;;;;;;;;;;;;5074614;28;19982;-83
2020/12/05 08:24:08;;;;;;;;;;;;;;;;;;5076014;28;19931;-84
2020/12/05 08:26:34;;;;;;;;;;;;;;;;;;5092327;28;19968;-83
2020/12/05 08:29:02;;;;;;;;;;;;;;;;;;5082070;28;22292;-83
2020/12/05 08:31:29;;;;;;;;;;;;;;;;;;5092092;28;20015;-84
2020/12/05 08:33:55;;;;;;;;;;;;;;;;;;5092591;28;19924;-84
2020/12/05 08:36:31;;;;;;;;;;;;;;;;;;5091955;28;20312;-84
2020/12/05 08:38:58;;;;;;;;;;;;;;;;;;5066368;28;20022;-84
2020/12/05 08:41:24;;;;;;;;;;;;;;;;;;5074967;28;19925;-83
2020/12/05 08:43:51;;;;;;;;;;;;;;;;;;5082437;28;20027;-83
2020/12/05 08:46:17;;;;;;;;;;;;;;;;;;5092390;28;19924;-84
2020/12/05 08:48:44;;;;;;;;;;;;;;;;;;5092149;28;19928;-84
2020/12/05 08:51:11;;;;;;;;;;;;;;;;;;5073740;28;20065;-83
2020/12/05 08:53:37;;;;;;;;;;;;;;;;;;5092366;28;19924;-83
2020/12/05 08:56:05;;;;;;;;;;;;;;;;;;5080752;28;19977;-83
2020/12/05 08:58:37;;;;;;;;;;;;;;;;;;5077168;28;20353;-84
2020/12/05 09:01:03;;;;;;;;;;;;;;;;;;5066341;28;19977;-83
2020/12/05 09:03:35;;;;;;;;;;;;;;;;;;5091633;28;19931;-83
2020/12/05 09:06:01;;;;;;;;;;;;;;;;;;5092170;28;19928;-83
2020/12/05 09:08:28;;;;;;;;;;;;;;;;;;5077801;28;20038;-82
2020/12/05 09:10:55;;;;;;;;;;;;;;;;;;5091893;28;19928;-84
2020/12/05 09:13:24;;;;;;;;;;;;;;;;;;5075972;28;20026;-85
2020/12/05 09:18:21;;;;;;;;;;;;;;;;;;5093737;28;19928;-85
2020/12/05 09:20:48;;;;;;;;;;;;;;;;;;5076815;28;19924;-83
2020/12/05 09:23:14;;;;;;;;;;;;;;;;;;5085862;28;19955;-84
2020/12/05 09:25:41;;;;;;;;;;;;;;;;;;5079668;28;19977;-84
2020/12/05 09:28:07;;;;;;;;;;;;;;;;;;5094834;28;20333;-84
2020/12/05 09:30:34;;;;;;;;;;;;;;;;;;5077232;28;20015;-85
2020/12/05 09:33:02;;;;;;;;;;;;;;;;;;5085746;28;19928;-85
2020/12/05 09:35:29;;;;;;;;;;;;;;;;;;5095037;28;19963;-87
2020/12/05 09:37:58;;;;;;;;;;;;;;;;;;5078744;28;19924;-88
2020/12/05 09:40:27;;;;;;;;;;;;;;;;;;5094855;28;19967;-86
2020/12/05 09:42:54;;;;;;;;;;;;;;;;;;5077843;28;19928;-86
2020/12/05 09:45:24;;;;;;;;;;;;;;;;;;5075903;28;20346;-88
2020/12/05 09:47:52;;;;;;;;;;;;;;;;;;5095311;28;19936;-84
2020/12/05 09:50:20;;;;;;;;;;;;;;;;;;5077787;28;19925;-85
2020/12/05 09:52:46;;;;;;;;;;;;;;;;;;5083846;28;19982;-87
2020/12/05 09:55:13;;;;;;;;;;;;;;;;;;5077380;28;19924;-87
2020/12/05 09:57:40;;;;;;;;;;;;;;;;;;5077111;28;19928;-87
2020/12/05 10:00:13;;;;;;;;;;;;;;;;;;5080952;28;20602;-84
2020/12/05 10:02:42;;;;;;;;;;;;;;;;;;5094280;28;20386;-84
2020/12/05 10:07:50;;;;;;;;;;;;;;;;;;5094761;28;19924;-83
2020/12/05 10:10:17;;;;;;;;;;;;;;;;;;5094391;28;20015;-83
2020/12/05 10:12:45;;;;;;;;;;;;;;;;;;5078197;28;19974;-83
2020/12/05 10:15:12;;;;;;;;;;;;;;;;;;5094784;28;19924;-83
2020/12/05 10:17:45;;;;;;;;;;;;;;;;;;5094027;28;19932;-84
2020/12/05 10:20:13;;;;;;;;;;;;;;;;;;5095025;28;19932;-83
2020/12/05 10:22:54;;;;;;;;;;;;;;;;;;5076629;28;19924;-83
2020/12/05 10:25:20;;;;;;;;;;;;;;;;;;5094864;28;19982;-83
2020/12/05 10:27:47;;;;;;;;;;;;;;;;;;5076330;28;19924;-84
2020/12/05 10:30:14;;;;;;;;;;;;;;;;;;5079656;28;20014;-85
2020/12/05 10:32:40;;;;;;;;;;;;;;;;;;5084117;28;19960;-81
2020/12/05 10:35:09;;;;;;;;;;;;;;;;;;5077778;28;19959;-80
2020/12/05 10:37:35;;;;;;;;;;;;;;;;;;5093395;28;20540;-80
2020/12/05 10:40:14;;;;;;;;;;;;;;;;;;5075427;28;19971;-79
2020/12/05 10:42:41;;;;;;;;;;;;;;;;;;5093625;28;19975;-79
2020/12/05 10:45:07;;;;;;;;;;;;;;;;;;5094059;28;19966;-79
2020/12/05 10:47:34;;;;;;;;;;;;;;;;;;5092713;28;19928;-80
2020/12/05 10:50:01;;;;;;;;;;;;;;;;;;5075428;28;19956;-79
2020/12/05 10:52:27;;;;;;;;;;;;;;;;;;5078679;28;20298;-80
2020/12/05 10:54:54;;;;;;;;;;;;;;;;;;5082955;28;20010;-82
2020/12/05 10:57:20;;;;;;;;;;;;;;;;;;5086994;28;19969;-83
2020/12/05 10:59:49;;;;;;;;;;;;;;;;;;5092456;28;20026;-82
2020/12/05 11:05:01;;;;;;;;;;;;;;;;;;5093272;28;20415;-84
2020/12/05 11:07:28;;;;;;;;;;;;;;;;;;5093032;28;20011;-85
2020/12/05 11:09:54;;;;;;;;;;;;;;;;;;5083359;28;20023;-81
2020/12/05 11:12:22;;;;;;;;;;;;;;;;;;5073701;28;20014;-82
2020/12/05 11:17:21;;;;;;;;;;;;;;;;;;5088933;28;19932;-83
2020/12/05 11:19:48;;;;;;;;;;;;;;;;;;5089113;28;20603;-80
2020/12/05 11:22:16;;;;;;;;;;;;;;;;;;5084204;28;20074;-81
2020/12/05 11:24:45;;;;;;;;;;;;;;;;;;5083835;28;19928;-79
2020/12/05 11:27:12;;;;;;;;;;;;;;;;;;5063746;28;19981;-79
2020/12/05 11:29:40;;;;;;;;;;;;;;;;;;5069355;28;20554;-81
2020/12/05 11:32:08;;;;;;;;;;;;;;;;;;5078953;28;19931;-79
2020/12/05 11:34:35;;;;;;;;;;;;;;;;;;5063892;28;19925;-79
2020/12/05 11:37:05;;;;;;;;;;;;;;;;;;5082352;28;19932;-80
2020/12/05 11:39:34;;;;;;;;;;;;;;;;;;5065820;28;19963;-84
2020/12/05 11:42:00;;;;;;;;;;;;;;;;;;5080959;28;20564;-83
2020/12/05 11:44:27;;;;;;;;;;;;;;;;;;5065211;28;19955;-82
2020/12/05 11:46:58;;;;;;;;;;;;;;;;;;5062895;28;19931;-84
2020/12/05 11:49:27;;;;;;;;;;;;;;;;;;5080548;28;20063;-83
2020/12/05 11:52:01;;;;;;;;;;;;;;;;;;5081233;28;20006;-83
2020/12/05 11:54:38;;;;;;;;;;;;;;;;;;5081151;28;19924;-86
2020/12/05 11:57:12;;;;;;;;;;;;;;;;;;5065854;28;19960;-83
2020/12/05 11:59:39;;;;;;;;;;;;;;;;;;5065913;28;19971;-78
2020/12/05 12:02:06;;;;;;;;;;;;;;;;;;5078664;28;19931;-79
2020/12/05 12:04:32;;;;;;;;;;;;;;;;;;5079438;28;20007;-79
2020/12/05 12:06:59;;;;;;;;;;;;;;;;;;5083341;28;19935;-78
2020/12/05 12:09:25;;;;;;;;;;;;;;;;;;5080488;28;20007;-79
2020/12/05 12:11:53;;;;;;;;;;;;;;;;;;5080196;28;19928;-79
2020/12/05 12:14:19;;;;;;;;;;;;;;;;;;5079011;28;20387;-78
2020/12/05 12:16:46;;;;;;;;;;;;;;;;;;5061485;28;19924;-79
2020/12/05 12:19:13;;;;;;;;;;;;;;;;;;5076366;28;20444;-78
2020/12/05 12:21:41;;;;;;;;;;;;;;;;;;5057091;28;19967;-78
2020/12/05 12:24:08;;;;;;;;;;;;;;;;;;5078960;28;20277;-79
2020/12/05 12:26:34;;;;;;;;;;;;;;;;;;5072817;28;19935;-78
2020/12/05 12:29:01;;;;;;;;;;;;;;;;;;5054205;28;19928;-78
2020/12/05 12:31:28;;;;;;;;;;;;;;;;;;5080166;28;20737;-78
2020/12/05 12:33:54;;;;;;;;;;;;;;;;;;5079269;28;19924;-78
2020/12/05 12:36:21;;;;;;;;;;;;;;;;;;5083337;28;20007;-78
2020/12/05 12:38:48;;;;;;;;;;;;;;;;;;5072119;28;19928;-78
2020/12/05 12:41:15;;;;;;;;;;;;;;;;;;5089474;28;19924;-78
2020/12/05 12:43:41;;;;;;;;;;;;;;;;;;5080651;28;20386;-78
2020/12/05 12:46:08;;;;;;;;;;;;;;;;;;5062087;28;19936;-78
2020/12/05 12:51:02;;;;;;;;;;;;;;;;;;5069895;28;20032;-78
2020/12/05 12:53:28;;;;;;;;;;;;;;;;;;5071032;28;19975;-78
2020/12/05 12:55:56;;;;;;;;;;;;;;;;;;5074721;28;19932;-78
2020/12/05 13:00:55;;;;;;;;;;;;;;;;;;5080832;28;20665;-78
2020/12/05 13:03:22;;;;;;;;;;;;;;;;;;5073421;28;19928;-78
2020/12/05 13:05:49;;;;;;;;;;;;;;;;;;5075154;28;20019;-78
2020/12/05 13:08:15;;;;;;;;;;;;;;;;;;5075273;28;19961;-78
2020/12/05 13:10:42;;;;;;;;;;;;;;;;;;5093116;28;19967;-78
2020/12/05 13:13:09;;;;;;;;;;;;;;;;;;5073607;28;20007;-83
2020/12/05 13:15:36;;;;;;;;;;;;;;;;;;5086577;28;19932;-80
2020/12/05 13:18:03;;;;;;;;;;;;;;;;;;5084798;28;19924;-78
2020/12/05 13:20:29;;;;;;;;;;;;;;;;;;5080858;28;19960;-78
2020/12/05 13:22:56;;;;;;;;;;;;;;;;;;5081507;28;20019;-77
2020/12/05 13:25:22;;;;;;;;;;;;;;;;;;5092786;28;19975;-80
2020/12/05 13:27:49;;;;;;;;;;;;;;;;;;5092922;28;19931;-83
2020/12/05 13:30:16;;;;;;;;;;;;;;;;;;5083846;28;19932;-79
2020/12/05 13:32:42;;;;;;;;;;;;;;;;;;5085762;28;20007;-78
2020/12/05 13:35:09;;;;;;;;;;;;;;;;;;5066253;28;19963;-78
2020/12/05 13:37:36;;;;;;;;;;;;;;;;;;5084632;28;19930;-78
2020/12/05 13:40:03;;;;;;;;;;;;;;;;;;5082770;28;19967;-78
2020/12/05 13:42:30;;;;;;;;;;;;;;;;;;5066229;28;19930;-79
2020/12/05 13:45:03;;;;;;;;;;;;;;;;;;5085712;28;19932;-79
2020/12/05 13:47:29;;;;;;;;;;;;;;;;;;5066509;28;19924;-80
2020/12/05 13:49:56;;;;;;;;;;;;;;;;;;5084061;28;19931;-79
2020/12/05 13:52:22;;;;;;;;;;;;;;;;;;5068082;28;19939;-80
2020/12/05 13:54:50;;;;;;;;;;;;;;;;;;5066684;28;20558;-79
2020/12/05 13:57:18;;;;;;;;;;;;;;;;;;5067333;28;20443;-80
2020/12/05 13:59:45;;;;;;;;;;;;;;;;;;5078264;28;20010;-78
2020/12/05 14:02:24;;;;;;;;;;;;;;;;;;5081897;28;19959;-80
2020/12/05 14:04:51;;;;;;;;;;;;;;;;;;5067690;28;19971;-80
2020/12/05 14:07:17;;;;;;;;;;;;;;;;;;5067044;28;20031;-84
2020/12/05 14:09:44;;;;;;;;;;;;;;;;;;5070352;28;20062;-84
2020/12/05 14:12:10;;;;;;;;;;;;;;;;;;5073411;28;20011;-83
2020/12/05 14:14:46;;;;;;;;;;;;;;;;;;5070257;28;20129;-86
2020/12/05 14:17:14;;;;;;;;;;;;;;;;;;5066545;28;20000;-83
2020/12/05 14:22:12;;;;;;;;;;;;;;;;;;5085884;28;19970;-83
2020/12/05 14:24:39;;;;;;;;;;;;;;;;;;5087203;28;19932;-78
2020/12/05 14:27:08;;;;;;;;;;;;;;;;;;5083418;28;20376;-78
2020/12/05 14:29:44;;;;;;;;;;;;;;;;;;5068133;28;19931;-79
2020/12/05 14:32:10;;;;;;;;;;;;;;;;;;5091328;28;20026;-78
2020/12/05 14:34:38;;;;;;;;;;;;;;;;;;5064145;28;19931;-79
2020/12/05 14:37:05;;;;;;;;;;;;;;;;;;5061507;28;19928;-78
2020/12/05 14:39:31;;;;;;;;;;;;;;;;;;5063492;28;20534;-78
2020/12/05 14:41:58;;;;;;;;;;;;;;;;;;5065814;28;20022;-79
2020/12/05 14:44:24;;;;;;;;;;;;;;;;;;5065795;28;19938;-78
2020/12/05 14:46:52;;;;;;;;;;;;;;;;;;5087236;28;20014;-78
2020/12/05 14:49:18;;;;;;;;;;;;;;;;;;5081122;28;19996;-77
2020/12/05 14:51:45;;;;;;;;;;;;;;;;;;5064527;28;19928;-77
2020/12/05 14:54:13;;;;;;;;;;;;;;;;;;5064178;28;20007;-78
2020/12/05 14:56:40;;;;;;;;;;;;;;;;;;5081759;28;20359;-77
2020/12/05 14:59:06;;;;;;;;;;;;;;;;;;5079757;28;20015;-78
2020/12/05 15:01:34;;;;;;;;;;;;;;;;;;5065075;28;19924;-77
2020/12/05 15:04:00;;;;;;;;;;;;;;;;;;5099669;28;19930;-76
2020/12/05 15:06:28;;;;;;;;;;;;;;;;;;5111178;28;20394;-77
2020/12/05 15:08:55;;;;;;;;;;;;;;;;;;5072804;28;19931;-77
2020/12/05 15:11:25;;;;;;;;;;;;;;;;;;5081417;28;20360;-78
2020/12/05 15:13:52;;;;;;;;;;;;;;;;;;5079668;28;20637;-81
2020/12/05 15:16:19;;;;;;;;;;;;;;;;;;5064488;28;19935;-76
2020/12/05 15:18:45;;;;;;;;;;;;;;;;;;5062353;28;20019;-77
2020/12/05 15:21:12;;;;;;;;;;;;;;;;;;5085420;28;19928;-76
2020/12/05 15:23:40;;;;;;;;;;;;;;;;;;5072196;28;20030;-76
2020/12/05 15:26:07;;;;;;;;;;;;;;;;;;5088939;28;20011;-80
2020/12/05 15:28:33;;;;;;;;;;;;;;;;;;5064414;28;19935;-78
2020/12/05 15:31:00;;;;;;;;;;;;;;;;;;5079289;28;20035;-80
2020/12/05 15:36:02;;;;;;;;;;;;;;;;;;5092324;28;20020;-79
2020/12/05 15:38:29;;;;;;;;;;;;;;;;;;5081291;28;19935;-80
2020/12/05 15:40:56;;;;;;;;;;;;;;;;;;5082310;28;20284;-80
2020/12/05 15:43:23;;;;;;;;;;;;;;;;;;5089796;28;19969;-81
2020/12/05 15:45:51;;;;;;;;;;;;;;;;;;5087735;28;20560;-83
2020/12/05 15:48:17;;;;;;;;;;;;;;;;;;5064205;28;20026;-83
2020/12/05 15:50:44;;;;;;;;;;;;;;;;;;5066302;28;20015;-81
2020/12/05 15:53:10;;;;;;;;;;;;;;;;;;5082483;28;19968;-81
2020/12/05 15:55:37;;;;;;;;;;;;;;;;;;5084963;28;19968;-82
2020/12/05 15:58:07;;;;;;;;;;;;;;;;;;5064818;28;20039;-80
2020/12/05 16:00:34;;;;;;;;;;;;;;;;;;5065640;28;19935;-79
2020/12/05 16:03:00;;;;;;;;;;;;;;;;;;5063368;28;20297;-79
2020/12/05 16:05:34;;;;;;;;;;;;;;;;;;5064274;28;20007;-83
2020/12/05 16:08:02;;;;;;;;;;;;;;;;;;5064490;28;20432;-78
2020/12/05 16:10:36;;;;;;;;;;;;;;;;;;5082025;28;19930;-81
2020/12/05 16:13:03;;;;;;;;;;;;;;;;;;5092302;27;20273;-82
2020/12/05 16:15:33;;;;;;;;;;;;;;;;;;5067334;28;19928;-80
2020/12/05 16:18:00;;;;;;;;;;;;;;;;;;5061846;28;19996;-81
2020/12/05 16:20:34;;;;;;;;;;;;;;;;;;5082877;28;21145;-82
2020/12/05 16:23:00;;;;;;;;;;;;;;;;;;5079890;28;20063;-81
2020/12/05 16:25:29;;;;;;;;;;;;;;;;;;5084277;28;19924;-81
2020/12/05 16:27:55;;;;;;;;;;;;;;;;;;5066524;28;19949;-81
2020/12/05 16:30:23;;;;;;;;;;;;;;;;;;5075974;28;19996;-80
2020/12/05 16:32:51;;;;;;;;;;;;;;;;;;5101804;28;20434;-80
2020/12/05 16:35:34;;;;;;;;;;;;;;;;;;5075049;28;20007;-85
2020/12/05 16:38:11;;;;;;;;;;;;;;;;;;5075261;28;19968;-84
2020/12/05 16:40:38;;;;;;;;;;;;;;;;;;5075569;28;20250;-84
2020/12/05 16:43:05;;;;;;;;;;;;;;;;;;5091979;28;20376;-85
2020/12/05 16:48:03;;;;;;;;;;;;;;;;;;5077283;28;19963;-84
2020/12/05 16:50:30;;;;;;;;;;;;;;;;;;5098241;28;20022;-82
2020/12/05 16:52:59;;;;;;;;;;;;;;;;;;5073869;28;20022;-86
2020/12/05 16:55:26;;;;;;;;;;;;;;;;;;5078248;28;19928;-84
2020/12/05 16:57:52;;;;;;;;;;;;;;;;;;5092361;28;20007;-83
2020/12/05 17:02:54;;;;;;;;;;;;;;;;;;5092351;28;20436;-87
2020/12/05 17:05:20;;;;;;;;;;;;;;;;;;5077681;28;19924;-89
2020/12/05 17:07:52;;;;;;;;;;;;;;;;;;5083700;28;19928;-84
2020/12/05 17:10:21;;;;;;;;;;;;;;;;;;5092984;28;19950;-86
2020/12/05 17:12:48;;;;;;;;;;;;;;;;;;5076255;28;19924;-84
2020/12/05 17:15:14;;;;;;;;;;;;;;;;;;5092972;28;19924;-86
2020/12/05 17:17:41;;;;;;;;;;;;;;;;;;5076982;28;20023;-84